Terminal Aerodrome Forecast
Issued by NWS Louisville, KY

Home | Current Version | Previous Version | Text Only | Print | Product List | Glossary On
Versions: 1 2 3 4 5 6 7 8 9 10 11 12 13 14 15 16 17 18
000
FTUS43 KLMK 011400 AAA
TAFLEX
TAF AMD
KLEX 011438Z 0115/0212 04008KT 3SM -RA BR BKN005 OVC008
     FM011800 04009KT 5SM -SHRA BKN008
     FM012100 04007KT P6SM VCSH BKN012
     FM020300 04004KT 5SM BR OVC008=

USA.gov is the U.S. government's official web portal to all federal, state and local government web resources and services.